Evelyn Maersk — OXHV2 — position and weather

sailwx.info

Track history (hours):
 
Tides and Currents Weather Stations Pressure Air Temp Water Temp Dewpoint Dewpoint Depression Visibility Wind Speed Wind Dir Waves Ship Positions

Evelyn Maersk

Last reported at 2015-Aug-29 05:33 UTC. Time now 2015-Aug-29 06:13 UTC.
Position N 51°29' E 002°42'.

Length 398 m; draft 10.4 m.

Type: Cargo ship. MMSI: 220496000.

Date/timePositionNaut miles runAvg speedWind from/ knotsBaromVisibWave heightAir tempDewpointWater temp
2015-Aug-29 05:33N 51°29' E 002°42'10 9.8
2015-Aug-29 04:33N 51°23' E 002°54'1615.7
2015-Aug-29 03:34N 51°24' E 003°19'1414.1
2015-Aug-29 02:33N 51°26' E 003°42'1010.3
2015-Aug-29 01:34N 51°26' E 003°58'9 8.9
2015-Aug-29 00:33N 51°24' E 004°12'6 6.4
2015-Aug-28 23:33N 51°18' E 004°16'0 0.3
2015-Aug-28 22:29N 51°18' E 004°16'0 0.0
2015-Aug-28 21:32N 51°18' E 004°16'0 0.0
2015-Aug-28 20:32N 51°18' E 004°16'0 0.0
2015-Aug-28 19:29N 51°18' E 004°16'0 0.0
2015-Aug-28 18:32N 51°18' E 004°16'0 0.0
2015-Aug-28 17:32N 51°18' E 004°16'0 0.0
2015-Aug-28 16:29N 51°18' E 004°16'0 0.0
2015-Aug-28 15:32N 51°18' E 004°16'0 0.0
2015-Aug-28 14:29N 51°18' E 004°16'0 0.0
2015-Aug-28 13:32N 51°18' E 004°16'0 0.0
2015-Aug-28 12:32N 51°18' E 004°16'0 0.0
2015-Aug-28 11:32N 51°18' E 004°16'0 0.0
2015-Aug-28 10:32N 51°18' E 004°16'0 0.0
2015-Aug-28 09:32N 51°18' E 004°16'0 0.0
2015-Aug-28 08:32N 51°18' E 004°16'0 0.0
2015-Aug-28 07:32N 51°18' E 004°16'0 0.0
2015-Aug-28 06:32N 51°18' E 004°16'0 0.0
2015-Aug-28 05:32N 51°18' E 004°16'0 0.0
2015-Aug-28 04:32N 51°18' E 004°16'0 0.0
2015-Aug-28 03:32N 51°18' E 004°16'0 0.0
2015-Aug-28 02:32N 51°18' E 004°16'0 0.0
2015-Aug-28 01:32N 51°18' E 004°16'0 0.0
2015-Aug-28 00:32N 51°18' E 004°16'0 0.0
2015-Aug-27 23:32N 51°18' E 004°16'0 0.0
2015-Aug-27 22:32N 51°18' E 004°16'0 0.0
2015-Aug-27 21:32N 51°18' E 004°16'0 0.0
2015-Aug-27 20:32N 51°18' E 004°16'0 0.0
2015-Aug-27 19:29N 51°18' E 004°16'0 0.0
2015-Aug-27 18:32N 51°18' E 004°16'0 0.0
2015-Aug-27 17:32N 51°18' E 004°16'0 0.0
2015-Aug-27 16:32N 51°18' E 004°16'0 0.0
2015-Aug-27 15:32N 51°18' E 004°16'0 0.0
2015-Aug-27 14:32N 51°18' E 004°16'0 0.0
2015-Aug-27 13:34N 51°18' E 004°16'2 1.5
2015-Aug-27 12:34N 51°19' E 004°16'7 7.2
2015-Aug-27 11:34N 51°22' E 004°06'8 8.2
2015-Aug-27 10:33N 51°21' E 003°53'1111.2
2015-Aug-27 09:33N 51°26' E 003°36'9 9.0
2015-Aug-27 08:34N 51°24' E 003°22'9 9.4
2015-Aug-27 07:33N 51°24' E 003°07'1010.3
2015-Aug-27 06:33N 51°25' E 002°51'8 8.1
2015-Aug-27 05:33N 51°22' E 002°39'8 7.7
2015-Aug-27 04:33N 51°21' E 002°27'10 9.8
2015-Aug-27 03:34N 51°16' E 002°14'1110.9
2015-Aug-27 02:33N 51°11' E 001°59'1818.2
2015-Aug-27 01:33N 51°01' E 001°34'2120.6
2015-Aug-27 00:33N 50°42' E 001°20'2320.0
2015-Aug-26 23:25N 50°29' E 000°50'1820.2
2015-Aug-26 22:33N 50°23' E 000°24'6920.9
2015-Aug-26 19:14N 50°05' W 001°21'2624.3
2015-Aug-26 18:11N 49°58' W 001°58'66720.4
2015-Aug-25 09:33N 40°19' W 009°48'2121.2
2015-Aug-25 08:33N 39°58' W 009°48'2121.4
2015-Aug-25 07:33N 39°36' W 009°49'2121.1
2015-Aug-25 06:33N 39°15' W 009°49'2120.7
2015-Aug-25 05:33N 38°55' W 009°50'2020.5
2015-Aug-25 04:34N 38°34' W 009°47'2120.6
2015-Aug-25 03:34N 38°14' W 009°42'2020.4
2015-Aug-25 02:33N 37°54' W 009°38'2020.1
2015-Aug-25 01:34N 37°34' W 009°33'2020.2
2015-Aug-25 00:33N 37°15' W 009°26'2220.2
2015-Aug-24 23:27N 36°53' W 009°20'1819.8
2015-Aug-24 22:32N 36°42' W 009°02'2020.3
2015-Aug-24 21:33N 36°36' W 008°38'2020.0
2015-Aug-24 20:33N 36°30' W 008°14'2020.7
2015-Aug-24 19:33N 36°24' W 007°49'2521.0
2015-Aug-24 18:23N 36°17' W 007°20'42119.2
2015-Aug-23 20:26N 36°50' E 001°22'1820.5
2015-Aug-23 19:33N 36°52' E 001°45'2120.7
2015-Aug-23 18:33N 36°55' E 002°10'2020.2
2015-Aug-23 17:33N 36°58' E 002°36'2020.2
2015-Aug-23 16:33N 37°01' E 003°01'2020.1
2015-Aug-23 15:32N 37°03' E 003°26'1919.5
2015-Aug-23 14:33N 37°05' E 003°50'2020.4
2015-Aug-23 13:33N 37°08' E 004°15'2020.3
2015-Aug-23 12:33N 37°11' E 004°41'2020.2
2015-Aug-23 11:33N 37°14' E 005°06'2120.7
2015-Aug-23 10:33N 37°17' E 005°31'10521.0
2015-Aug-23 05:34N 37°30' E 007°42'2220.8
2015-Aug-23 04:30N 37°33' E 008°10'2020.8
2015-Aug-23 03:33N 37°36' E 008°35'2120.8
2015-Aug-23 02:32N 37°37' E 009°01'2020.4
2015-Aug-23 01:33N 37°37' E 009°27'2020.2
2015-Aug-23 00:33N 37°38' E 009°52'2020.0
2015-Aug-22 23:33N 37°38' E 010°17'2020.4
2015-Aug-22 22:33N 37°33' E 010°42'2120.7
2015-Aug-22 21:34N 37°28' E 011°08'2821.3
2015-Aug-22 20:14N 37°16' E 011°40'1821.0
2015-Aug-22 19:22N 37°08' E 011°60'2020.7
2015-Aug-22 18:25N 36°58' E 012°22'1820.8
2015-Aug-22 17:33N 36°51' E 012°42'2220.7
2015-Aug-22 16:29N 36°43' E 013°08'1920.6
2015-Aug-22 15:34N 36°37' E 013°30'2020.4
2015-Aug-22 14:34N 36°31' E 013°55'2121.0
2015-Aug-22 13:33N 36°25' E 014°20'2121.3
2015-Aug-22 12:34N 36°18' E 014°45'74320.5
2015-Aug-21 00:14N 32°33' E 029°03'1420.8
2015-Aug-20 23:33N 32°29' E 029°19'3120.9
2015-Aug-20 22:04N 32°20' E 029°55'1120.9
2015-Aug-20 21:33N 32°16' E 030°07'11318.6
2015-Aug-20 15:28N 31°35' E 032°11'1516.2
2015-Aug-20 14:34N 31°26' E 032°24'1413.2
2015-Aug-20 13:31N 31°13' E 032°20'11 9.2
2015-Aug-20 12:17N 31°01' E 032°19'710.0
2015-Aug-20 11:33N 30°54' E 032°19'66 4.9
2015-Aug-19 22:08N 29°49' E 032°34'8 4.8
2015-Aug-19 20:30N 29°41' E 032°34'1516.0
2015-Aug-19 19:33N 29°27' E 032°38'  
Track history (hours):
 
Tides and Currents Weather Stations Pressure Air Temp Water Temp Dewpoint Dewpoint Depression Visibility Wind Speed Wind Dir Waves Ship Positions

Evelyn Maersk

Last reported at 2015-Aug-29 05:33 UTC. Time now 2015-Aug-29 06:13 UTC.
Position N 51°29' E 002°42'.

Length 398 m; draft 10.4 m.

Type: Cargo ship. MMSI: 220496000.

Date/timePositionNaut miles runAvg speedWind from/ knotsBaromVisibWave heightAir tempDewpointWater temp
2015-Aug-29 05:33N 51°29' E 002°42'10 9.8
2015-Aug-29 04:33N 51°23' E 002°54'1615.7
2015-Aug-29 03:34N 51°24' E 003°19'1414.1
2015-Aug-29 02:33N 51°26' E 003°42'1010.3
2015-Aug-29 01:34N 51°26' E 003°58'9 8.9
2015-Aug-29 00:33N 51°24' E 004°12'6 6.4
2015-Aug-28 23:33N 51°18' E 004°16'0 0.3
2015-Aug-28 22:29N 51°18' E 004°16'0 0.0
2015-Aug-28 21:32N 51°18' E 004°16'0 0.0
2015-Aug-28 20:32N 51°18' E 004°16'0 0.0
2015-Aug-28 19:29N 51°18' E 004°16'0 0.0
2015-Aug-28 18:32N 51°18' E 004°16'0 0.0
2015-Aug-28 17:32N 51°18' E 004°16'0 0.0
2015-Aug-28 16:29N 51°18' E 004°16'0 0.0
2015-Aug-28 15:32N 51°18' E 004°16'0 0.0
2015-Aug-28 14:29N 51°18' E 004°16'0 0.0
2015-Aug-28 13:32N 51°18' E 004°16'0 0.0
2015-Aug-28 12:32N 51°18' E 004°16'0 0.0
2015-Aug-28 11:32N 51°18' E 004°16'0 0.0
2015-Aug-28 10:32N 51°18' E 004°16'0 0.0
2015-Aug-28 09:32N 51°18' E 004°16'0 0.0
2015-Aug-28 08:32N 51°18' E 004°16'0 0.0
2015-Aug-28 07:32N 51°18' E 004°16'0 0.0
2015-Aug-28 06:32N 51°18' E 004°16'0 0.0
2015-Aug-28 05:32N 51°18' E 004°16'0 0.0
2015-Aug-28 04:32N 51°18' E 004°16'0 0.0
2015-Aug-28 03:32N 51°18' E 004°16'0 0.0
2015-Aug-28 02:32N 51°18' E 004°16'0 0.0
2015-Aug-28 01:32N 51°18' E 004°16'0 0.0
2015-Aug-28 00:32N 51°18' E 004°16'0 0.0
2015-Aug-27 23:32N 51°18' E 004°16'0 0.0
2015-Aug-27 22:32N 51°18' E 004°16'0 0.0
2015-Aug-27 21:32N 51°18' E 004°16'0 0.0
2015-Aug-27 20:32N 51°18' E 004°16'0 0.0
2015-Aug-27 19:29N 51°18' E 004°16'0 0.0
2015-Aug-27 18:32N 51°18' E 004°16'0 0.0
2015-Aug-27 17:32N 51°18' E 004°16'0 0.0
2015-Aug-27 16:32N 51°18' E 004°16'0 0.0
2015-Aug-27 15:32N 51°18' E 004°16'0 0.0
2015-Aug-27 14:32N 51°18' E 004°16'0 0.0
2015-Aug-27 13:34N 51°18' E 004°16'2 1.5
2015-Aug-27 12:34N 51°19' E 004°16'7 7.2
2015-Aug-27 11:34N 51°22' E 004°06'8 8.2
2015-Aug-27 10:33N 51°21' E 003°53'1111.2
2015-Aug-27 09:33N 51°26' E 003°36'9 9.0
2015-Aug-27 08:34N 51°24' E 003°22'9 9.4
2015-Aug-27 07:33N 51°24' E 003°07'1010.3
2015-Aug-27 06:33N 51°25' E 002°51'8 8.1
2015-Aug-27 05:33N 51°22' E 002°39'8 7.7
2015-Aug-27 04:33N 51°21' E 002°27'10 9.8
2015-Aug-27 03:34N 51°16' E 002°14'1110.9
2015-Aug-27 02:33N 51°11' E 001°59'1818.2
2015-Aug-27 01:33N 51°01' E 001°34'2120.6
2015-Aug-27 00:33N 50°42' E 001°20'2320.0
2015-Aug-26 23:25N 50°29' E 000°50'1820.2
2015-Aug-26 22:33N 50°23' E 000°24'6920.9
2015-Aug-26 19:14N 50°05' W 001°21'2624.3
2015-Aug-26 18:11N 49°58' W 001°58'66720.4
2015-Aug-25 09:33N 40°19' W 009°48'2121.2
2015-Aug-25 08:33N 39°58' W 009°48'2121.4
2015-Aug-25 07:33N 39°36' W 009°49'2121.1
2015-Aug-25 06:33N 39°15' W 009°49'2120.7
2015-Aug-25 05:33N 38°55' W 009°50'2020.5
2015-Aug-25 04:34N 38°34' W 009°47'2120.6
2015-Aug-25 03:34N 38°14' W 009°42'2020.4
2015-Aug-25 02:33N 37°54' W 009°38'2020.1
2015-Aug-25 01:34N 37°34' W 009°33'2020.2
2015-Aug-25 00:33N 37°15' W 009°26'2220.2
2015-Aug-24 23:27N 36°53' W 009°20'1819.8
2015-Aug-24 22:32N 36°42' W 009°02'2020.3
2015-Aug-24 21:33N 36°36' W 008°38'2020.0
2015-Aug-24 20:33N 36°30' W 008°14'2020.7
2015-Aug-24 19:33N 36°24' W 007°49'2521.0
2015-Aug-24 18:23N 36°17' W 007°20'42119.2
2015-Aug-23 20:26N 36°50' E 001°22'1820.5
2015-Aug-23 19:33N 36°52' E 001°45'2120.7
2015-Aug-23 18:33N 36°55' E 002°10'2020.2
2015-Aug-23 17:33N 36°58' E 002°36'2020.2
2015-Aug-23 16:33N 37°01' E 003°01'2020.1
2015-Aug-23 15:32N 37°03' E 003°26'1919.5
2015-Aug-23 14:33N 37°05' E 003°50'2020.4
2015-Aug-23 13:33N 37°08' E 004°15'2020.3
2015-Aug-23 12:33N 37°11' E 004°41'2020.2
2015-Aug-23 11:33N 37°14' E 005°06'2120.7
2015-Aug-23 10:33N 37°17' E 005°31'10521.0
2015-Aug-23 05:34N 37°30' E 007°42'2220.8
2015-Aug-23 04:30N 37°33' E 008°10'2020.8
2015-Aug-23 03:33N 37°36' E 008°35'2120.8
2015-Aug-23 02:32N 37°37' E 009°01'2020.4
2015-Aug-23 01:33N 37°37' E 009°27'2020.2
2015-Aug-23 00:33N 37°38' E 009°52'2020.0
2015-Aug-22 23:33N 37°38' E 010°17'2020.4
2015-Aug-22 22:33N 37°33' E 010°42'2120.7
2015-Aug-22 21:34N 37°28' E 011°08'2821.3
2015-Aug-22 20:14N 37°16' E 011°40'1821.0
2015-Aug-22 19:22N 37°08' E 011°60'2020.7
2015-Aug-22 18:25N 36°58' E 012°22'1820.8
2015-Aug-22 17:33N 36°51' E 012°42'2220.7
2015-Aug-22 16:29N 36°43' E 013°08'1920.6
2015-Aug-22 15:34N 36°37' E 013°30'2020.4
2015-Aug-22 14:34N 36°31' E 013°55'2121.0
2015-Aug-22 13:33N 36°25' E 014°20'2121.3
2015-Aug-22 12:34N 36°18' E 014°45'74320.5
2015-Aug-21 00:14N 32°33' E 029°03'1420.8
2015-Aug-20 23:33N 32°29' E 029°19'3120.9
2015-Aug-20 22:04N 32°20' E 029°55'1120.9
2015-Aug-20 21:33N 32°16' E 030°07'11318.6
2015-Aug-20 15:28N 31°35' E 032°11'1516.2
2015-Aug-20 14:34N 31°26' E 032°24'1413.2
2015-Aug-20 13:31N 31°13' E 032°20'11 9.2
2015-Aug-20 12:17N 31°01' E 032°19'710.0
2015-Aug-20 11:33N 30°54' E 032°19'66 4.9
2015-Aug-19 22:08N 29°49' E 032°34'8 4.8
2015-Aug-19 20:30N 29°41' E 032°34'1516.0
2015-Aug-19 19:33N 29°27' E 032°38'  

Dump ship's entire track history